sensor_id;sensor_type;location;lat;lon;timestamp;P1;durP1;ratioP1;P2;durP2;ratioP2
71303;SDS011;59091;47.446;19.148;2023-06-26T00:01:49;5.60;;;5.07;;
71303;SDS011;59091;47.446;19.148;2023-06-26T00:04:15;7.25;;;4.90;;
71303;SDS011;59091;47.446;19.148;2023-06-26T00:06:40;6.25;;;4.75;;
71303;SDS011;59091;47.446;19.148;2023-06-26T00:09:06;5.90;;;4.78;;
71303;SDS011;59091;47.446;19.148;2023-06-26T00:11:32;6.60;;;5.10;;
71303;SDS011;59091;47.446;19.148;2023-06-26T00:13:58;6.38;;;4.95;;
71303;SDS011;59091;47.446;19.148;2023-06-26T00:16:27;5.82;;;5.05;;
71303;SDS011;59091;47.446;19.148;2023-06-26T00:18:53;6.95;;;5.35;;
71303;SDS011;59091;47.446;19.148;2023-06-26T00:21:19;6.15;;;4.82;;
71303;SDS011;59091;47.446;19.148;2023-06-26T00:23:44;7.63;;;4.88;;
71303;SDS011;59091;47.446;19.148;2023-06-26T00:26:10;7.63;;;5.18;;
71303;SDS011;59091;47.446;19.148;2023-06-26T00:28:36;6.05;;;4.80;;
71303;SDS011;59091;47.446;19.148;2023-06-26T00:31:02;5.82;;;4.85;;
71303;SDS011;59091;47.446;19.148;2023-06-26T00:33:27;9.90;;;5.82;;
71303;SDS011;59091;47.446;19.148;2023-06-26T00:35:52;8.15;;;5.30;;
71303;SDS011;59091;47.446;19.148;2023-06-26T00:38:18;7.60;;;6.05;;
71303;SDS011;59091;47.446;19.148;2023-06-26T00:40:43;7.78;;;5.55;;
71303;SDS011;59091;47.446;19.148;2023-06-26T00:43:09;11.98;;;6.03;;
71303;SDS011;59091;47.446;19.148;2023-06-26T00:45:35;7.53;;;5.78;;
71303;SDS011;59091;47.446;19.148;2023-06-26T00:48:01;6.45;;;5.50;;
71303;SDS011;59091;47.446;19.148;2023-06-26T00:50:27;8.65;;;5.65;;
71303;SDS011;59091;47.446;19.148;2023-06-26T00:52:53;8.10;;;5.38;;
71303;SDS011;59091;47.446;19.148;2023-06-26T00:55:20;8.65;;;5.70;;
71303;SDS011;59091;47.446;19.148;2023-06-26T00:57:45;10.35;;;5.50;;
71303;SDS011;59091;47.446;19.148;2023-06-26T01:00:11;7.13;;;6.32;;
71303;SDS011;59091;47.446;19.148;2023-06-26T01:02:38;9.45;;;6.13;;
71303;SDS011;59091;47.446;19.148;2023-06-26T01:05:03;8.00;;;6.43;;
71303;SDS011;59091;47.446;19.148;2023-06-26T01:07:32;6.85;;;6.05;;
71303;SDS011;59091;47.446;19.148;2023-06-26T01:10:01;6.75;;;5.82;;
71303;SDS011;59091;47.446;19.148;2023-06-26T01:12:31;8.68;;;6.60;;
71303;SDS011;59091;47.446;19.148;2023-06-26T01:14:57;9.23;;;6.43;;
71303;SDS011;59091;47.446;19.148;2023-06-26T01:17:24;6.25;;;5.65;;
71303;SDS011;59091;47.446;19.148;2023-06-26T01:19:49;8.07;;;6.45;;
71303;SDS011;59091;47.446;19.148;2023-06-26T01:27:48;9.20;;;6.68;;
71303;SDS011;59091;47.446;19.148;2023-06-26T01:30:15;8.18;;;6.22;;
71303;SDS011;59091;47.446;19.148;2023-06-26T01:32:42;7.35;;;6.60;;
71303;SDS011;59091;47.446;19.148;2023-06-26T01:35:08;8.77;;;6.45;;
71303;SDS011;59091;47.446;19.148;2023-06-26T01:37:34;11.75;;;6.68;;
71303;SDS011;59091;47.446;19.148;2023-06-26T01:40:00;7.63;;;6.35;;
71303;SDS011;59091;47.446;19.148;2023-06-26T01:42:25;10.07;;;6.38;;
71303;SDS011;59091;47.446;19.148;2023-06-26T01:44:51;7.50;;;6.55;;
71303;SDS011;59091;47.446;19.148;2023-06-26T01:47:21;10.40;;;6.97;;
71303;SDS011;59091;47.446;19.148;2023-06-26T01:57:46;8.93;;;6.78;;
71303;SDS011;59091;47.446;19.148;2023-06-26T02:00:13;9.73;;;6.82;;
71303;SDS011;59091;47.446;19.148;2023-06-26T02:02:43;9.48;;;6.50;;
71303;SDS011;59091;47.446;19.148;2023-06-26T02:05:09;7.57;;;6.68;;
71303;SDS011;59091;47.446;19.148;2023-06-26T02:07:34;7.97;;;6.32;;
71303;SDS011;59091;47.446;19.148;2023-06-26T02:10:01;9.38;;;6.80;;
71303;SDS011;59091;47.446;19.148;2023-06-26T02:12:27;7.82;;;6.47;;
71303;SDS011;59091;47.446;19.148;2023-06-26T02:14:52;12.45;;;6.57;;
71303;SDS011;59091;47.446;19.148;2023-06-26T02:17:18;9.05;;;6.60;;
71303;SDS011;59091;47.446;19.148;2023-06-26T02:19:43;8.25;;;6.45;;
71303;SDS011;59091;47.446;19.148;2023-06-26T02:22:12;7.88;;;6.30;;
71303;SDS011;59091;47.446;19.148;2023-06-26T02:24:41;8.07;;;6.65;;
71303;SDS011;59091;47.446;19.148;2023-06-26T02:27:07;10.48;;;7.55;;
71303;SDS011;59091;47.446;19.148;2023-06-26T02:29:33;9.10;;;7.18;;
71303;SDS011;59091;47.446;19.148;2023-06-26T02:31:58;9.20;;;7.65;;
71303;SDS011;59091;47.446;19.148;2023-06-26T02:34:24;10.50;;;7.72;;
71303;SDS011;59091;47.446;19.148;2023-06-26T02:36:49;9.52;;;7.47;;
71303;SDS011;59091;47.446;19.148;2023-06-26T02:39:15;10.90;;;7.88;;
71303;SDS011;59091;47.446;19.148;2023-06-26T02:41:40;11.48;;;7.65;;
71303;SDS011;59091;47.446;19.148;2023-06-26T02:44:06;12.55;;;7.60;;
71303;SDS011;59091;47.446;19.148;2023-06-26T02:46:32;10.73;;;7.47;;
71303;SDS011;59091;47.446;19.148;2023-06-26T02:48:58;9.32;;;6.93;;
71303;SDS011;59091;47.446;19.148;2023-06-26T02:51:24;10.07;;;7.65;;
71303;SDS011;59091;47.446;19.148;2023-06-26T02:53:50;9.48;;;7.47;;
71303;SDS011;59091;47.446;19.148;2023-06-26T02:56:15;9.05;;;7.30;;
71303;SDS011;59091;47.446;19.148;2023-06-26T02:58:41;9.40;;;7.18;;
71303;SDS011;59091;47.446;19.148;2023-06-26T03:01:06;11.73;;;7.72;;
71303;SDS011;59091;47.446;19.148;2023-06-26T03:03:31;8.73;;;7.10;;
71303;SDS011;59091;47.446;19.148;2023-06-26T03:06:06;8.43;;;6.93;;
71303;SDS011;59091;47.446;19.148;2023-06-26T03:08:32;9.40;;;7.32;;
71303;SDS011;59091;47.446;19.148;2023-06-26T03:10:58;7.90;;;6.80;;
71303;SDS011;59091;47.446;19.148;2023-06-26T03:13:24;7.72;;;6.45;;
71303;SDS011;59091;47.446;19.148;2023-06-26T03:15:49;9.93;;;6.88;;
71303;SDS011;59091;47.446;19.148;2023-06-26T03:18:15;8.52;;;6.53;;
71303;SDS011;59091;47.446;19.148;2023-06-26T03:20:40;9.90;;;6.55;;
71303;SDS011;59091;47.446;19.148;2023-06-26T03:23:05;12.27;;;6.57;;
71303;SDS011;59091;47.446;19.148;2023-06-26T03:25:31;11.15;;;6.88;;
71303;SDS011;59091;47.446;19.148;2023-06-26T03:27:57;9.98;;;6.38;;
71303;SDS011;59091;47.446;19.148;2023-06-26T03:30:22;9.80;;;7.25;;
71303;SDS011;59091;47.446;19.148;2023-06-26T03:32:47;10.30;;;7.00;;
71303;SDS011;59091;47.446;19.148;2023-06-26T03:35:13;12.10;;;6.80;;
71303;SDS011;59091;47.446;19.148;2023-06-26T03:37:39;9.55;;;6.70;;
71303;SDS011;59091;47.446;19.148;2023-06-26T03:40:05;8.52;;;6.68;;
71303;SDS011;59091;47.446;19.148;2023-06-26T03:42:31;8.00;;;6.70;;
71303;SDS011;59091;47.446;19.148;2023-06-26T03:44:56;9.40;;;6.78;;
71303;SDS011;59091;47.446;19.148;2023-06-26T03:47:22;15.23;;;6.57;;
71303;SDS011;59091;47.446;19.148;2023-06-26T03:49:47;10.45;;;7.15;;
71303;SDS011;59091;47.446;19.148;2023-06-26T03:52:13;7.18;;;6.32;;
71303;SDS011;59091;47.446;19.148;2023-06-26T03:54:38;11.27;;;6.63;;
71303;SDS011;59091;47.446;19.148;2023-06-26T03:57:04;10.48;;;7.00;;
71303;SDS011;59091;47.446;19.148;2023-06-26T03:59:29;9.75;;;7.15;;
71303;SDS011;59091;47.446;19.148;2023-06-26T04:01:55;10.13;;;7.05;;
71303;SDS011;59091;47.446;19.148;2023-06-26T04:04:20;11.15;;;6.88;;
71303;SDS011;59091;47.446;19.148;2023-06-26T04:06:45;10.40;;;7.63;;
71303;SDS011;59091;47.446;19.148;2023-06-26T04:09:11;8.90;;;6.35;;
71303;SDS011;59091;47.446;19.148;2023-06-26T04:11:36;10.00;;;6.72;;
71303;SDS011;59091;47.446;19.148;2023-06-26T04:14:02;9.98;;;7.30;;
71303;SDS011;59091;47.446;19.148;2023-06-26T04:16:28;15.73;;;7.60;;
71303;SDS011;59091;47.446;19.148;2023-06-26T04:18:53;10.18;;;6.72;;
71303;SDS011;59091;47.446;19.148;2023-06-26T04:21:21;7.85;;;6.60;;
71303;SDS011;59091;47.446;19.148;2023-06-26T04:23:48;8.65;;;6.63;;
71303;SDS011;59091;47.446;19.148;2023-06-26T04:26:14;8.35;;;6.40;;
71303;SDS011;59091;47.446;19.148;2023-06-26T04:28:40;9.00;;;6.50;;
71303;SDS011;59091;47.446;19.148;2023-06-26T04:31:06;7.35;;;5.93;;
71303;SDS011;59091;47.446;19.148;2023-06-26T04:33:32;6.85;;;6.05;;
71303;SDS011;59091;47.446;19.148;2023-06-26T04:35:57;10.18;;;6.63;;
71303;SDS011;59091;47.446;19.148;2023-06-26T04:38:23;7.63;;;6.22;;
71303;SDS011;59091;47.446;19.148;2023-06-26T04:40:48;15.25;;;6.90;;
71303;SDS011;59091;47.446;19.148;2023-06-26T04:43:14;16.65;;;6.97;;
71303;SDS011;59091;47.446;19.148;2023-06-26T04:45:40;11.63;;;6.80;;
71303;SDS011;59091;47.446;19.148;2023-06-26T04:48:05;9.23;;;6.70;;
71303;SDS011;59091;47.446;19.148;2023-06-26T04:50:31;10.55;;;6.57;;
71303;SDS011;59091;47.446;19.148;2023-06-26T04:52:56;12.90;;;7.18;;
71303;SDS011;59091;47.446;19.148;2023-06-26T04:55:23;10.88;;;6.85;;
71303;SDS011;59091;47.446;19.148;2023-06-26T04:57:49;12.32;;;8.02;;
71303;SDS011;59091;47.446;19.148;2023-06-26T05:00:15;10.55;;;6.90;;
71303;SDS011;59091;47.446;19.148;2023-06-26T05:02:40;15.88;;;7.75;;
71303;SDS011;59091;47.446;19.148;2023-06-26T05:05:06;23.20;;;9.00;;
71303;SDS011;59091;47.446;19.148;2023-06-26T05:07:32;16.08;;;7.85;;
71303;SDS011;59091;47.446;19.148;2023-06-26T05:09:57;10.18;;;6.50;;
71303;SDS011;59091;47.446;19.148;2023-06-26T05:12:23;15.07;;;7.10;;
71303;SDS011;59091;47.446;19.148;2023-06-26T05:14:48;12.68;;;7.22;;
71303;SDS011;59091;47.446;19.148;2023-06-26T05:17:14;14.55;;;7.05;;
71303;SDS011;59091;47.446;19.148;2023-06-26T05:19:39;12.15;;;7.00;;
71303;SDS011;59091;47.446;19.148;2023-06-26T05:22:05;13.88;;;6.22;;
71303;SDS011;59091;47.446;19.148;2023-06-26T05:24:37;6.95;;;6.20;;
71303;SDS011;59091;47.446;19.148;2023-06-26T05:27:04;13.35;;;6.90;;
71303;SDS011;59091;47.446;19.148;2023-06-26T05:29:31;11.13;;;6.78;;
71303;SDS011;59091;47.446;19.148;2023-06-26T05:31:58;8.98;;;6.50;;
71303;SDS011;59091;47.446;19.148;2023-06-26T05:34:24;7.57;;;6.18;;
71303;SDS011;59091;47.446;19.148;2023-06-26T05:36:51;10.63;;;6.72;;
71303;SDS011;59091;47.446;19.148;2023-06-26T05:39:17;8.57;;;6.63;;
71303;SDS011;59091;47.446;19.148;2023-06-26T05:41:44;9.75;;;6.10;;
71303;SDS011;59091;47.446;19.148;2023-06-26T05:44:10;9.65;;;6.68;;
71303;SDS011;59091;47.446;19.148;2023-06-26T05:46:35;9.07;;;6.10;;
71303;SDS011;59091;47.446;19.148;2023-06-26T05:49:01;9.20;;;6.28;;
71303;SDS011;59091;47.446;19.148;2023-06-26T05:51:27;10.20;;;6.22;;
71303;SDS011;59091;47.446;19.148;2023-06-26T05:53:53;6.90;;;6.13;;
71303;SDS011;59091;47.446;19.148;2023-06-26T05:56:19;10.52;;;6.43;;
71303;SDS011;59091;47.446;19.148;2023-06-26T05:58:45;8.73;;;6.00;;
71303;SDS011;59091;47.446;19.148;2023-06-26T06:01:11;14.63;;;6.07;;
71303;SDS011;59091;47.446;19.148;2023-06-26T06:03:36;7.15;;;5.78;;
71303;SDS011;59091;47.446;19.148;2023-06-26T06:06:02;7.95;;;6.28;;
71303;SDS011;59091;47.446;19.148;2023-06-26T06:08:28;10.13;;;6.32;;
71303;SDS011;59091;47.446;19.148;2023-06-26T06:10:54;9.95;;;6.45;;
71303;SDS011;59091;47.446;19.148;2023-06-26T06:13:19;8.43;;;5.95;;
71303;SDS011;59091;47.446;19.148;2023-06-26T06:15:45;7.80;;;5.80;;
71303;SDS011;59091;47.446;19.148;2023-06-26T06:18:10;10.73;;;6.55;;
71303;SDS011;59091;47.446;19.148;2023-06-26T06:20:35;8.35;;;5.78;;
71303;SDS011;59091;47.446;19.148;2023-06-26T06:23:01;8.18;;;6.20;;
71303;SDS011;59091;47.446;19.148;2023-06-26T06:25:26;12.80;;;6.18;;
71303;SDS011;59091;47.446;19.148;2023-06-26T06:27:52;8.02;;;5.65;;
71303;SDS011;59091;47.446;19.148;2023-06-26T06:30:17;6.90;;;5.15;;
71303;SDS011;59091;47.446;19.148;2023-06-26T06:32:43;8.43;;;5.40;;
71303;SDS011;59091;47.446;19.148;2023-06-26T06:35:08;7.65;;;5.60;;
71303;SDS011;59091;47.446;19.148;2023-06-26T06:37:37;9.98;;;5.75;;
71303;SDS011;59091;47.446;19.148;2023-06-26T06:40:04;7.63;;;5.45;;
71303;SDS011;59091;47.446;19.148;2023-06-26T06:42:31;8.32;;;5.50;;
71303;SDS011;59091;47.446;19.148;2023-06-26T06:44:57;12.95;;;6.10;;
71303;SDS011;59091;47.446;19.148;2023-06-26T06:47:23;7.30;;;5.43;;
71303;SDS011;59091;47.446;19.148;2023-06-26T06:49:48;7.25;;;5.15;;
71303;SDS011;59091;47.446;19.148;2023-06-26T06:52:14;9.75;;;5.63;;
71303;SDS011;59091;47.446;19.148;2023-06-26T06:54:52;7.55;;;5.40;;
71303;SDS011;59091;47.446;19.148;2023-06-26T06:57:19;7.07;;;5.40;;
71303;SDS011;59091;47.446;19.148;2023-06-26T06:59:46;6.70;;;5.15;;
71303;SDS011;59091;47.446;19.148;2023-06-26T07:02:12;6.18;;;5.50;;
71303;SDS011;59091;47.446;19.148;2023-06-26T07:04:38;8.63;;;5.50;;
71303;SDS011;59091;47.446;19.148;2023-06-26T07:07:03;8.57;;;5.85;;
71303;SDS011;59091;47.446;19.148;2023-06-26T07:09:29;9.20;;;5.85;;
71303;SDS011;59091;47.446;19.148;2023-06-26T07:11:54;10.02;;;5.63;;
71303;SDS011;59091;47.446;19.148;2023-06-26T07:14:20;10.90;;;4.93;;
71303;SDS011;59091;47.446;19.148;2023-06-26T07:16:45;7.43;;;4.90;;
71303;SDS011;59091;47.446;19.148;2023-06-26T07:19:11;6.80;;;5.07;;
71303;SDS011;59091;47.446;19.148;2023-06-26T07:21:36;6.28;;;4.80;;
71303;SDS011;59091;47.446;19.148;2023-06-26T07:24:01;12.38;;;4.63;;
71303;SDS011;59091;47.446;19.148;2023-06-26T07:26:27;8.82;;;5.07;;
71303;SDS011;59091;47.446;19.148;2023-06-26T07:28:52;6.35;;;4.90;;
71303;SDS011;59091;47.446;19.148;2023-06-26T07:31:19;11.48;;;5.15;;
71303;SDS011;59091;47.446;19.148;2023-06-26T07:33:44;8.18;;;5.20;;
71303;SDS011;59091;47.446;19.148;2023-06-26T07:36:10;9.45;;;4.97;;
71303;SDS011;59091;47.446;19.148;2023-06-26T07:38:35;10.60;;;4.90;;
71303;SDS011;59091;47.446;19.148;2023-06-26T07:41:01;7.18;;;5.15;;
71303;SDS011;59091;47.446;19.148;2023-06-26T07:43:26;8.15;;;5.07;;
71303;SDS011;59091;47.446;19.148;2023-06-26T07:45:51;7.95;;;4.72;;
71303;SDS011;59091;47.446;19.148;2023-06-26T07:48:18;9.38;;;5.40;;
71303;SDS011;59091;47.446;19.148;2023-06-26T07:50:43;8.70;;;5.00;;
71303;SDS011;59091;47.446;19.148;2023-06-26T07:53:09;7.32;;;5.18;;
71303;SDS011;59091;47.446;19.148;2023-06-26T07:55:34;8.00;;;5.00;;
71303;SDS011;59091;47.446;19.148;2023-06-26T07:58:00;8.52;;;4.65;;
71303;SDS011;59091;47.446;19.148;2023-06-26T08:00:26;5.32;;;4.82;;
71303;SDS011;59091;47.446;19.148;2023-06-26T08:02:52;7.50;;;4.57;;
71303;SDS011;59091;47.446;19.148;2023-06-26T08:05:17;8.57;;;4.60;;
71303;SDS011;59091;47.446;19.148;2023-06-26T08:07:43;6.07;;;4.72;;
71303;SDS011;59091;47.446;19.148;2023-06-26T08:10:09;5.82;;;4.78;;
71303;SDS011;59091;47.446;19.148;2023-06-26T08:12:35;6.95;;;4.53;;
71303;SDS011;59091;47.446;19.148;2023-06-26T08:15:02;5.00;;;4.50;;
71303;SDS011;59091;47.446;19.148;2023-06-26T08:17:28;7.82;;;5.15;;
71303;SDS011;59091;47.446;19.148;2023-06-26T08:19:53;6.15;;;4.63;;
71303;SDS011;59091;47.446;19.148;2023-06-26T08:22:19;5.20;;;4.70;;
71303;SDS011;59091;47.446;19.148;2023-06-26T08:24:44;7.00;;;4.80;;
71303;SDS011;59091;47.446;19.148;2023-06-26T08:27:09;6.35;;;4.55;;
71303;SDS011;59091;47.446;19.148;2023-06-26T08:29:35;5.25;;;4.40;;
71303;SDS011;59091;47.446;19.148;2023-06-26T08:32:00;8.75;;;4.60;;
71303;SDS011;59091;47.446;19.148;2023-06-26T08:34:27;4.80;;;4.30;;
71303;SDS011;59091;47.446;19.148;2023-06-26T08:36:52;10.52;;;4.75;;
71303;SDS011;59091;47.446;19.148;2023-06-26T08:39:18;8.43;;;4.90;;
71303;SDS011;59091;47.446;19.148;2023-06-26T08:41:44;6.53;;;4.90;;
71303;SDS011;59091;47.446;19.148;2023-06-26T08:44:09;7.40;;;4.72;;
71303;SDS011;59091;47.446;19.148;2023-06-26T08:46:35;6.82;;;4.65;;
71303;SDS011;59091;47.446;19.148;2023-06-26T08:49:04;5.20;;;4.65;;
71303;SDS011;59091;47.446;19.148;2023-06-26T08:51:56;4.97;;;4.53;;
71303;SDS011;59091;47.446;19.148;2023-06-26T08:54:31;4.85;;;4.18;;
71303;SDS011;59091;47.446;19.148;2023-06-26T08:57:01;7.05;;;4.70;;
71303;SDS011;59091;47.446;19.148;2023-06-26T08:59:27;5.03;;;4.53;;
71303;SDS011;59091;47.446;19.148;2023-06-26T09:01:53;6.80;;;4.63;;
71303;SDS011;59091;47.446;19.148;2023-06-26T09:04:19;8.23;;;4.45;;
71303;SDS011;59091;47.446;19.148;2023-06-26T09:06:44;5.05;;;4.30;;
71303;SDS011;59091;47.446;19.148;2023-06-26T09:09:09;9.18;;;4.55;;
71303;SDS011;59091;47.446;19.148;2023-06-26T09:11:35;9.13;;;5.13;;
71303;SDS011;59091;47.446;19.148;2023-06-26T09:14:01;7.45;;;4.78;;
71303;SDS011;59091;47.446;19.148;2023-06-26T09:16:30;5.07;;;4.57;;
71303;SDS011;59091;47.446;19.148;2023-06-26T09:18:55;5.43;;;4.63;;
71303;SDS011;59091;47.446;19.148;2023-06-26T09:21:21;6.13;;;5.10;;
71303;SDS011;59091;47.446;19.148;2023-06-26T09:23:47;6.93;;;4.65;;
71303;SDS011;59091;47.446;19.148;2023-06-26T09:26:14;6.78;;;5.00;;
71303;SDS011;59091;47.446;19.148;2023-06-26T09:28:41;8.85;;;5.20;;
71303;SDS011;59091;47.446;19.148;2023-06-26T09:31:08;5.00;;;4.60;;
71303;SDS011;59091;47.446;19.148;2023-06-26T09:33:35;5.90;;;4.97;;
71303;SDS011;59091;47.446;19.148;2023-06-26T09:36:04;6.82;;;4.88;;
71303;SDS011;59091;47.446;19.148;2023-06-26T09:38:31;7.22;;;5.20;;
71303;SDS011;59091;47.446;19.148;2023-06-26T09:40:56;6.50;;;5.05;;
71303;SDS011;59091;47.446;19.148;2023-06-26T09:43:22;7.35;;;5.15;;
71303;SDS011;59091;47.446;19.148;2023-06-26T09:45:48;10.93;;;4.78;;
71303;SDS011;59091;47.446;19.148;2023-06-26T09:48:13;7.03;;;5.35;;
71303;SDS011;59091;47.446;19.148;2023-06-26T09:50:41;7.78;;;5.65;;
71303;SDS011;59091;47.446;19.148;2023-06-26T09:53:07;13.35;;;5.38;;
71303;SDS011;59091;47.446;19.148;2023-06-26T09:55:38;5.72;;;4.93;;
71303;SDS011;59091;47.446;19.148;2023-06-26T09:58:05;7.78;;;5.57;;
71303;SDS011;59091;47.446;19.148;2023-06-26T10:00:31;6.05;;;5.47;;
71303;SDS011;59091;47.446;19.148;2023-06-26T10:02:58;6.10;;;5.50;;
71303;SDS011;59091;47.446;19.148;2023-06-26T10:05:24;8.25;;;5.25;;
71303;SDS011;59091;47.446;19.148;2023-06-26T10:07:49;5.38;;;4.80;;
71303;SDS011;59091;47.446;19.148;2023-06-26T10:10:16;7.18;;;5.30;;
71303;SDS011;59091;47.446;19.148;2023-06-26T10:12:42;7.00;;;5.47;;
71303;SDS011;59091;47.446;19.148;2023-06-26T10:15:11;12.02;;;6.32;;
71303;SDS011;59091;47.446;19.148;2023-06-26T10:17:41;8.30;;;5.25;;
71303;SDS011;59091;47.446;19.148;2023-06-26T10:20:08;6.32;;;5.43;;
71303;SDS011;59091;47.446;19.148;2023-06-26T10:22:39;10.73;;;5.38;;
71303;SDS011;59091;47.446;19.148;2023-06-26T10:25:07;8.65;;;5.45;;
71303;SDS011;59091;47.446;19.148;2023-06-26T10:27:36;10.18;;;5.40;;
71303;SDS011;59091;47.446;19.148;2023-06-26T10:30:06;9.98;;;5.40;;
71303;SDS011;59091;47.446;19.148;2023-06-26T10:35:05;5.75;;;5.03;;
71303;SDS011;59091;47.446;19.148;2023-06-26T10:37:45;7.65;;;5.43;;
71303;SDS011;59091;47.446;19.148;2023-06-26T10:40:12;7.40;;;5.30;;
71303;SDS011;59091;47.446;19.148;2023-06-26T10:42:45;6.30;;;5.53;;
71303;SDS011;59091;47.446;19.148;2023-06-26T10:47:41;9.32;;;5.20;;
71303;SDS011;59091;47.446;19.148;2023-06-26T10:50:20;6.72;;;4.93;;
71303;SDS011;59091;47.446;19.148;2023-06-26T10:55:56;7.43;;;5.38;;
71303;SDS011;59091;47.446;19.148;2023-06-26T10:58:26;8.15;;;5.25;;
71303;SDS011;59091;47.446;19.148;2023-06-26T11:03:48;7.53;;;5.57;;
71303;SDS011;59091;47.446;19.148;2023-06-26T11:06:23;8.73;;;5.82;;
71303;SDS011;59091;47.446;19.148;2023-06-26T11:08:49;9.63;;;5.95;;
71303;SDS011;59091;47.446;19.148;2023-06-26T11:11:17;8.15;;;5.10;;
71303;SDS011;59091;47.446;19.148;2023-06-26T11:13:44;5.70;;;5.20;;
71303;SDS011;59091;47.446;19.148;2023-06-26T11:16:11;7.72;;;5.50;;
71303;SDS011;59091;47.446;19.148;2023-06-26T11:18:38;8.63;;;5.25;;
71303;SDS011;59091;47.446;19.148;2023-06-26T11:21:04;7.72;;;5.10;;
71303;SDS011;59091;47.446;19.148;2023-06-26T11:23:31;7.13;;;5.40;;
71303;SDS011;59091;47.446;19.148;2023-06-26T11:26:12;7.15;;;5.60;;
71303;SDS011;59091;47.446;19.148;2023-06-26T11:29:01;7.57;;;5.03;;
71303;SDS011;59091;47.446;19.148;2023-06-26T11:31:26;7.43;;;5.10;;
71303;SDS011;59091;47.446;19.148;2023-06-26T11:33:54;8.20;;;5.25;;
71303;SDS011;59091;47.446;19.148;2023-06-26T11:36:22;7.22;;;5.32;;
71303;SDS011;59091;47.446;19.148;2023-06-26T11:38:56;6.05;;;5.13;;
71303;SDS011;59091;47.446;19.148;2023-06-26T11:41:24;9.95;;;6.25;;
71303;SDS011;59091;47.446;19.148;2023-06-26T11:43:51;9.65;;;5.60;;
71303;SDS011;59091;47.446;19.148;2023-06-26T11:46:18;6.55;;;5.75;;
71303;SDS011;59091;47.446;19.148;2023-06-26T11:48:44;7.90;;;5.18;;
71303;SDS011;59091;47.446;19.148;2023-06-26T11:51:12;6.85;;;5.07;;
71303;SDS011;59091;47.446;19.148;2023-06-26T11:53:40;7.35;;;5.60;;
71303;SDS011;59091;47.446;19.148;2023-06-26T11:56:10;9.05;;;5.47;;
71303;SDS011;59091;47.446;19.148;2023-06-26T12:04:07;6.60;;;5.53;;
71303;SDS011;59091;47.446;19.148;2023-06-26T12:06:34;8.10;;;5.68;;
71303;SDS011;59091;47.446;19.148;2023-06-26T12:09:02;8.10;;;5.10;;
71303;SDS011;59091;47.446;19.148;2023-06-26T12:11:31;10.60;;;5.18;;
71303;SDS011;59091;47.446;19.148;2023-06-26T12:13:58;6.03;;;5.43;;
71303;SDS011;59091;47.446;19.148;2023-06-26T12:16:24;5.97;;;5.05;;
71303;SDS011;59091;47.446;19.148;2023-06-26T12:18:50;7.45;;;5.72;;
71303;SDS011;59091;47.446;19.148;2023-06-26T12:24:03;7.13;;;5.45;;
71303;SDS011;59091;47.446;19.148;2023-06-26T12:26:29;9.48;;;4.95;;
71303;SDS011;59091;47.446;19.148;2023-06-26T12:29:08;8.48;;;5.18;;
71303;SDS011;59091;47.446;19.148;2023-06-26T12:31:42;6.25;;;5.40;;
71303;SDS011;59091;47.446;19.148;2023-06-26T12:34:13;8.30;;;5.20;;
71303;SDS011;59091;47.446;19.148;2023-06-26T12:36:43;9.00;;;5.00;;
71303;SDS011;59091;47.446;19.148;2023-06-26T12:39:10;6.38;;;5.40;;
71303;SDS011;59091;47.446;19.148;2023-06-26T12:41:52;5.88;;;5.35;;
71303;SDS011;59091;47.446;19.148;2023-06-26T12:44:22;6.82;;;5.53;;
71303;SDS011;59091;47.446;19.148;2023-06-26T12:46:53;6.90;;;5.73;;
71303;SDS011;59091;47.446;19.148;2023-06-26T12:49:28;6.55;;;5.75;;
71303;SDS011;59091;47.446;19.148;2023-06-26T12:52:01;7.65;;;5.45;;
71303;SDS011;59091;47.446;19.148;2023-06-26T12:54:28;6.72;;;5.50;;
71303;SDS011;59091;47.446;19.148;2023-06-26T12:56:54;5.85;;;5.25;;
71303;SDS011;59091;47.446;19.148;2023-06-26T12:59:20;9.13;;;5.32;;
71303;SDS011;59091;47.446;19.148;2023-06-26T13:01:46;9.23;;;5.70;;
71303;SDS011;59091;47.446;19.148;2023-06-26T13:04:12;5.63;;;5.10;;
71303;SDS011;59091;47.446;19.148;2023-06-26T13:06:37;5.68;;;5.18;;
71303;SDS011;59091;47.446;19.148;2023-06-26T13:09:03;5.90;;;5.10;;
71303;SDS011;59091;47.446;19.148;2023-06-26T13:11:32;6.28;;;4.90;;
71303;SDS011;59091;47.446;19.148;2023-06-26T13:13:58;14.13;;;5.53;;
71303;SDS011;59091;47.446;19.148;2023-06-26T13:16:24;12.38;;;5.57;;
71303;SDS011;59091;47.446;19.148;2023-06-26T13:18:49;5.80;;;5.15;;
71303;SDS011;59091;47.446;19.148;2023-06-26T13:21:15;12.40;;;6.43;;
71303;SDS011;59091;47.446;19.148;2023-06-26T13:23:42;8.15;;;5.30;;
71303;SDS011;59091;47.446;19.148;2023-06-26T13:26:07;8.70;;;5.25;;
71303;SDS011;59091;47.446;19.148;2023-06-26T13:28:33;11.15;;;5.35;;
71303;SDS011;59091;47.446;19.148;2023-06-26T13:30:58;8.07;;;5.00;;
71303;SDS011;59091;47.446;19.148;2023-06-26T13:33:24;12.20;;;5.43;;
71303;SDS011;59091;47.446;19.148;2023-06-26T13:35:52;7.20;;;5.00;;
71303;SDS011;59091;47.446;19.148;2023-06-26T13:38:20;7.97;;;5.38;;
71303;SDS011;59091;47.446;19.148;2023-06-26T13:40:52;6.63;;;5.03;;
71303;SDS011;59091;47.446;19.148;2023-06-26T13:43:20;5.80;;;5.20;;
71303;SDS011;59091;47.446;19.148;2023-06-26T13:45:46;6.97;;;5.00;;
71303;SDS011;59091;47.446;19.148;2023-06-26T13:48:11;7.20;;;5.40;;
71303;SDS011;59091;47.446;19.148;2023-06-26T13:50:37;6.85;;;5.43;;
71303;SDS011;59091;47.446;19.148;2023-06-26T13:53:03;6.85;;;5.60;;
71303;SDS011;59091;47.446;19.148;2023-06-26T13:55:28;8.35;;;5.75;;
71303;SDS011;59091;47.446;19.148;2023-06-26T13:57:54;7.68;;;5.78;;
71303;SDS011;59091;47.446;19.148;2023-06-26T14:00:21;7.20;;;6.20;;
71303;SDS011;59091;47.446;19.148;2023-06-26T14:02:47;7.47;;;5.40;;
71303;SDS011;59091;47.446;19.148;2023-06-26T14:05:13;6.55;;;5.68;;
71303;SDS011;59091;47.446;19.148;2023-06-26T14:07:39;6.18;;;4.95;;
71303;SDS011;59091;47.446;19.148;2023-06-26T14:10:05;7.72;;;5.30;;
71303;SDS011;59091;47.446;19.148;2023-06-26T14:12:31;7.03;;;4.90;;
71303;SDS011;59091;47.446;19.148;2023-06-26T14:14:57;7.60;;;4.97;;
71303;SDS011;59091;47.446;19.148;2023-06-26T14:17:22;8.73;;;5.00;;
71303;SDS011;59091;47.446;19.148;2023-06-26T14:19:51;5.43;;;4.57;;
71303;SDS011;59091;47.446;19.148;2023-06-26T14:22:17;6.55;;;4.90;;
71303;SDS011;59091;47.446;19.148;2023-06-26T14:24:42;6.75;;;5.00;;
71303;SDS011;59091;47.446;19.148;2023-06-26T14:27:08;6.45;;;5.25;;
71303;SDS011;59091;47.446;19.148;2023-06-26T14:29:33;9.57;;;5.00;;
71303;SDS011;59091;47.446;19.148;2023-06-26T14:31:59;5.25;;;4.75;;
71303;SDS011;59091;47.446;19.148;2023-06-26T14:34:24;5.75;;;5.15;;
71303;SDS011;59091;47.446;19.148;2023-06-26T14:36:49;5.60;;;5.00;;
71303;SDS011;59091;47.446;19.148;2023-06-26T14:39:15;8.35;;;5.15;;
71303;SDS011;59091;47.446;19.148;2023-06-26T14:41:41;5.95;;;5.07;;
71303;SDS011;59091;47.446;19.148;2023-06-26T14:44:08;5.57;;;4.85;;
71303;SDS011;59091;47.446;19.148;2023-06-26T14:46:35;8.82;;;5.20;;
71303;SDS011;59091;47.446;19.148;2023-06-26T14:49:01;7.13;;;4.75;;
71303;SDS011;59091;47.446;19.148;2023-06-26T14:51:27;7.00;;;4.68;;
71303;SDS011;59091;47.446;19.148;2023-06-26T14:53:53;9.48;;;5.10;;
71303;SDS011;59091;47.446;19.148;2023-06-26T14:56:18;7.72;;;5.28;;
71303;SDS011;59091;47.446;19.148;2023-06-26T14:58:44;7.45;;;5.28;;
71303;SDS011;59091;47.446;19.148;2023-06-26T15:01:12;7.95;;;5.40;;